createdAt,value
2022-09-17T00:00:33.377Z,50.88
2022-09-17T00:02:59.747Z,51.06
2022-09-17T00:05:26.076Z,51.32
2022-09-17T00:07:53.103Z,51.33
2022-09-17T00:10:20.844Z,51.43
2022-09-17T00:12:47.683Z,51.63
2022-09-17T00:15:14.071Z,51.25
2022-09-17T00:17:41.012Z,51.53
2022-09-17T00:20:11.708Z,51.38
2022-09-17T00:22:39.438Z,51.70
2022-09-17T00:25:08.475Z,51.54
2022-09-17T00:27:34.819Z,51.54
2022-09-17T00:30:01.289Z,51.68
2022-09-17T00:32:27.740Z,51.85
2022-09-17T00:34:54.084Z,51.49
2022-09-17T00:37:20.522Z,50.87
2022-09-17T00:39:46.838Z,51.07
2022-09-17T00:42:14.691Z,51.09
2022-09-17T00:44:54.107Z,51.99
2022-09-17T00:47:25.112Z,51.49
2022-09-17T00:49:56.599Z,52.02
2022-09-17T00:52:28.539Z,51.89
2022-09-17T00:55:03.343Z,52.16
2022-09-17T00:57:31.019Z,51.51
2022-09-17T00:59:57.973Z,51.35
2022-09-17T01:02:25.400Z,51.55
2022-09-17T01:04:51.723Z,51.50
2022-09-17T01:07:24.094Z,51.45
2022-09-17T01:09:53.330Z,51.61
2022-09-17T01:12:31.597Z,52.12
2022-09-17T01:15:33.086Z,52.75
2022-09-17T01:18:11.706Z,52.56
2022-09-17T01:21:14.705Z,52.11
2022-09-17T01:24:13.637Z,52.19
2022-09-17T01:27:10.877Z,51.70
2022-09-17T01:30:13.001Z,52.26
2022-09-17T01:32:46.037Z,51.96
2022-09-17T01:35:27.534Z,52.32
2022-09-17T01:38:18.910Z,52.48
2022-09-17T01:41:08.774Z,52.46
2022-09-17T01:43:54.776Z,52.71
2022-09-17T01:46:43.025Z,52.53
2022-09-17T01:49:13.046Z,51.63
2022-09-17T01:51:42.186Z,51.75
2022-09-17T01:54:32.276Z,52.30
2022-09-17T01:57:23.165Z,52.25
2022-09-17T01:59:55.622Z,51.84
2022-09-17T02:02:38.588Z,52.12
2022-09-17T02:05:19.386Z,51.74
2022-09-17T02:07:52.715Z,52.23
2022-09-17T02:10:23.858Z,52.29
2022-09-17T02:12:56.005Z,52.14
2022-09-17T02:15:26.806Z,52.27
2022-09-17T02:18:02.931Z,52.71
2022-09-17T02:20:43.378Z,52.73
2022-09-17T02:23:16.797Z,52.84
2022-09-17T02:25:57.283Z,53.05
2022-09-17T02:28:31.450Z,52.58
2022-09-17T02:30:57.802Z,52.15
2022-09-17T02:33:25.813Z,52.38
2022-09-17T02:35:52.245Z,52.36
2022-09-17T02:38:25.305Z,52.70
2022-09-17T02:41:01.469Z,52.50
2022-09-17T02:43:41.675Z,52.93
2022-09-17T02:46:19.147Z,52.66
2022-09-17T02:49:13.207Z,52.49
2022-09-17T02:51:53.489Z,52.49
2022-09-17T02:54:40.830Z,53.09
2022-09-17T02:57:23.513Z,52.72
2022-09-17T03:00:09.367Z,52.77
2022-09-17T03:02:45.480Z,52.64
2022-09-17T03:05:13.301Z,52.31
2022-09-17T03:07:40.255Z,52.37
2022-09-17T03:10:07.203Z,52.51
2022-09-17T03:12:36.052Z,52.27
2022-09-17T03:15:03.281Z,52.43
2022-09-17T03:17:30.129Z,53.06
2022-09-17T03:19:56.566Z,52.46
2022-09-17T03:22:22.855Z,52.50
2022-09-17T03:24:49.161Z,52.45
2022-09-17T03:27:15.886Z,52.40
2022-09-17T03:29:42.167Z,52.63
2022-09-17T03:32:08.536Z,52.63
2022-09-17T03:34:34.831Z,52.35
2022-09-17T03:37:01.329Z,52.60
2022-09-17T03:39:29.147Z,52.47
2022-09-17T03:41:55.424Z,52.40
2022-09-17T03:44:23.637Z,52.24
2022-09-17T03:46:50.712Z,52.37
2022-09-17T03:49:17.059Z,52.28
2022-09-17T03:51:43.400Z,52.21
2022-09-17T03:54:09.707Z,52.17
2022-09-17T03:56:36.057Z,52.24
2022-09-17T03:59:02.451Z,52.26
2022-09-17T04:01:29.257Z,52.17
2022-09-17T04:03:56.037Z,51.95
2022-09-17T04:06:22.446Z,51.93
2022-09-17T04:08:48.716Z,51.97
2022-09-17T04:11:15.092Z,51.87
2022-09-17T04:13:41.438Z,52.14
2022-09-17T04:16:07.892Z,52.24
2022-09-17T04:18:34.388Z,52.22
2022-09-17T04:21:00.903Z,52.26
2022-09-17T04:23:27.193Z,52.44
2022-09-17T04:25:53.484Z,52.22
2022-09-17T04:28:19.767Z,51.96
2022-09-17T04:30:48.020Z,52.26
2022-09-17T04:33:14.325Z,51.99
2022-09-17T04:35:40.615Z,51.80
2022-09-17T04:38:06.966Z,51.71
2022-09-17T04:40:33.351Z,52.14
2022-09-17T04:43:02.851Z,51.84
2022-09-17T04:45:30.574Z,52.15
2022-09-17T04:47:57.403Z,52.11
2022-09-17T04:50:23.721Z,52.17
2022-09-17T04:52:50.131Z,51.87
2022-09-17T04:55:16.879Z,51.94
2022-09-17T04:57:51.636Z,51.95
2022-09-17T05:00:19.176Z,51.99
2022-09-17T05:02:47.694Z,52.12
2022-09-17T05:05:14.917Z,52.07
2022-09-17T05:07:42.213Z,51.78
2022-09-17T05:10:10.490Z,51.93
2022-09-17T05:12:36.880Z,52.06
2022-09-17T05:15:03.617Z,52.10
2022-09-17T05:17:29.924Z,52.08
2022-09-17T05:19:56.230Z,51.94
2022-09-17T05:22:22.534Z,52.11
2022-09-17T05:24:48.900Z,52.05
2022-09-17T05:27:15.395Z,51.84
2022-09-17T05:29:41.717Z,51.68
2022-09-17T05:32:08.001Z,51.74
2022-09-17T05:34:34.488Z,51.62
2022-09-17T05:37:00.818Z,51.99
2022-09-17T05:39:27.109Z,51.67
2022-09-17T05:41:54.458Z,51.70
2022-09-17T05:44:21.320Z,52.11
2022-09-17T05:46:48.123Z,51.92
2022-09-17T05:49:15.058Z,51.81
2022-09-17T05:51:42.484Z,51.97
2022-09-17T05:54:09.400Z,52.02
2022-09-17T05:56:35.694Z,51.88
2022-09-17T05:59:01.987Z,51.78
2022-09-17T06:01:28.367Z,51.71
2022-09-17T06:03:54.779Z,51.94
2022-09-17T06:06:21.065Z,51.90
2022-09-17T06:08:47.357Z,51.96
2022-09-17T06:11:13.850Z,51.99
2022-09-17T06:13:40.198Z,51.72
2022-09-17T06:16:06.518Z,51.65
2022-09-17T06:18:32.909Z,51.76
2022-09-17T06:21:01.930Z,52.28
2022-09-17T06:23:33.065Z,52.18
2022-09-17T06:26:00.337Z,52.02
2022-09-17T06:28:27.587Z,51.70
2022-09-17T06:30:54.294Z,51.32
2022-09-17T06:33:21.792Z,51.18
2022-09-17T06:35:48.122Z,51.19
2022-09-17T06:38:14.758Z,51.02
2022-09-17T06:40:41.258Z,50.89
2022-09-17T06:43:07.582Z,50.69
2022-09-17T06:45:33.868Z,50.66
2022-09-17T06:48:04.153Z,50.70
2022-09-17T06:50:31.112Z,50.86
2022-09-17T06:52:57.423Z,50.61
2022-09-17T06:55:23.981Z,50.69
2022-09-17T06:57:50.336Z,50.62
2022-09-17T07:00:16.728Z,50.21
2022-09-17T07:02:43.026Z,49.96
2022-09-17T07:05:09.529Z,49.55
2022-09-17T07:07:35.820Z,50.10
2022-09-17T07:10:02.864Z,49.65
2022-09-17T07:12:29.156Z,50.02
2022-09-17T07:14:55.454Z,49.70
2022-09-17T07:17:21.779Z,49.99
2022-09-17T07:19:48.061Z,49.83
2022-09-17T07:22:14.365Z,49.94
2022-09-17T07:24:40.663Z,50.05
2022-09-17T07:27:06.961Z,50.35
2022-09-17T07:29:33.267Z,50.88
2022-09-17T07:31:59.668Z,51.55
2022-09-17T07:34:28.702Z,51.22
2022-09-17T07:36:54.990Z,51.61
2022-09-17T07:39:21.310Z,52.19
2022-09-17T07:41:47.605Z,51.92
2022-09-17T07:44:13.897Z,51.13
2022-09-17T07:46:40.380Z,50.36
2022-09-17T07:49:06.727Z,49.82
2022-09-17T07:51:33.090Z,49.92
2022-09-17T07:53:59.871Z,48.57
2022-09-17T07:56:27.234Z,47.31
2022-09-17T07:58:54.079Z,46.94
2022-09-17T08:01:23.365Z,46.11
2022-09-17T08:03:52.461Z,45.79
2022-09-17T08:06:28.493Z,44.93
2022-09-17T08:08:57.008Z,45.01
2022-09-17T08:14:14.569Z,44.74
2022-09-17T08:16:41.205Z,45.76
2022-09-17T08:19:09.023Z,44.72
2022-09-17T08:21:35.750Z,44.72
2022-09-17T08:24:02.165Z,44.34
2022-09-17T08:26:28.731Z,44.49
2022-09-17T08:28:56.420Z,44.14
2022-09-17T08:31:24.885Z,44.35
2022-09-17T08:33:51.239Z,44.36
2022-09-17T08:36:19.141Z,44.01
2022-09-17T08:38:46.102Z,44.38
2022-09-17T08:41:40.347Z,43.86
2022-09-17T08:44:13.711Z,44.30
2022-09-17T08:46:50.596Z,44.29
2022-09-17T08:49:33.900Z,44.12
2022-09-17T08:52:12.040Z,43.71
2022-09-17T08:54:42.590Z,43.94
2022-09-17T08:57:33.596Z,43.27
2022-09-17T09:00:12.082Z,43.32
2022-09-17T09:02:50.294Z,44.59
2022-09-17T09:05:21.078Z,43.23
2022-09-17T09:07:52.710Z,42.46
2022-09-17T09:10:24.376Z,42.68
2022-09-17T09:12:52.705Z,42.96
2022-09-17T09:15:29.358Z,42.51
2022-09-17T09:18:03.288Z,42.10
2022-09-17T09:20:47.944Z,41.49
2022-09-17T09:23:34.440Z,41.64
2022-09-17T09:26:16.694Z,41.65
2022-09-17T09:29:04.258Z,41.27
2022-09-17T09:31:56.509Z,41.35
2022-09-17T09:34:23.810Z,41.96
2022-09-17T09:36:51.718Z,41.24
2022-09-17T09:39:23.720Z,40.84
2022-09-17T09:41:59.946Z,40.74
2022-09-17T09:44:26.856Z,41.39
2022-09-17T09:47:12.326Z,39.73
2022-09-17T09:50:00.143Z,40.38
2022-09-17T09:52:48.649Z,40.32
2022-09-17T09:55:37.015Z,41.69
2022-09-17T09:58:17.449Z,39.43
2022-09-17T10:00:43.868Z,40.19
2022-09-17T10:03:21.339Z,39.58
2022-09-17T10:05:58.729Z,39.76
2022-09-17T10:08:25.841Z,40.27
2022-09-17T10:11:02.752Z,39.38
2022-09-17T10:13:35.633Z,38.16
2022-09-17T10:16:20.393Z,39.20
2022-09-17T10:18:48.460Z,38.72
2022-09-17T10:21:22.409Z,37.95
2022-09-17T10:23:50.396Z,38.19
2022-09-17T10:26:35.339Z,37.97
2022-09-17T10:29:13.321Z,37.69
2022-09-17T10:31:48.453Z,37.97
2022-09-17T10:34:21.578Z,38.07
2022-09-17T10:36:48.728Z,38.74
2022-09-17T10:39:27.173Z,38.12
2022-09-17T10:42:12.892Z,39.75
2022-09-17T10:44:51.126Z,38.44
2022-09-17T10:47:34.482Z,38.00
2022-09-17T10:50:23.898Z,37.59
2022-09-17T10:52:53.505Z,38.15
2022-09-17T10:56:01.309Z,37.83
2022-09-17T10:59:03.104Z,38.39
2022-09-17T11:01:52.182Z,39.31
2022-09-17T11:04:18.530Z,39.77
2022-09-17T11:06:59.502Z,39.67
2022-09-17T11:09:26.166Z,39.97
2022-09-17T11:12:04.836Z,39.71
2022-09-17T11:14:46.972Z,40.26
2022-09-17T11:17:43.636Z,39.79
2022-09-17T11:20:28.643Z,39.57
2022-09-17T11:23:05.143Z,39.41
2022-09-17T11:26:13.708Z,39.49
2022-09-17T11:28:56.026Z,39.42
2022-09-17T11:31:43.622Z,39.24
2022-09-17T11:34:28.333Z,38.90
2022-09-17T11:37:06.922Z,39.32
2022-09-17T11:39:57.335Z,39.13
2022-09-17T11:42:51.649Z,39.02
2022-09-17T11:45:25.642Z,39.11
2022-09-17T11:48:13.769Z,39.17
2022-09-17T11:50:43.422Z,39.29
2022-09-17T11:53:26.806Z,39.41
2022-09-17T11:55:57.674Z,39.50
2022-09-17T11:58:42.344Z,39.42
2022-09-17T12:01:17.010Z,39.12
2022-09-17T12:03:53.357Z,39.01
2022-09-17T12:06:35.309Z,39.69
2022-09-17T12:09:14.020Z,39.05
2022-09-17T12:11:46.344Z,39.09
2022-09-17T12:14:21.638Z,38.97
2022-09-17T12:16:52.926Z,39.47
2022-09-17T12:19:46.673Z,39.17
2022-09-17T12:22:23.440Z,39.05
2022-09-17T12:24:51.198Z,39.56
2022-09-17T12:27:23.470Z,39.28
2022-09-17T12:30:11.596Z,39.07
2022-09-17T12:33:00.971Z,39.48
2022-09-17T12:38:40.950Z,39.60
2022-09-17T12:41:19.057Z,39.97
2022-09-17T12:44:04.018Z,40.18
2022-09-17T12:46:39.628Z,40.48
2022-09-17T12:49:33.869Z,40.32
2022-09-17T12:52:23.064Z,40.76
2022-09-17T12:55:07.763Z,40.68
2022-09-17T12:58:17.629Z,40.41
2022-09-17T13:00:59.496Z,40.34
2022-09-17T13:03:32.950Z,40.05
2022-09-17T13:06:14.314Z,40.14
2022-09-17T13:09:09.158Z,41.21
2022-09-17T13:12:00.718Z,41.56
2022-09-17T13:15:02.841Z,40.80
2022-09-17T13:18:12.758Z,41.47
2022-09-17T13:20:54.154Z,42.19
2022-09-17T13:23:40.483Z,42.74
2022-09-17T13:26:08.758Z,42.57
2022-09-17T13:28:47.851Z,43.10
2022-09-17T13:31:40.642Z,43.14
2022-09-17T13:34:19.112Z,43.26
2022-09-17T13:36:53.717Z,43.08
2022-09-17T13:39:47.377Z,43.06
2022-09-17T13:42:21.374Z,43.21
2022-09-17T13:45:18.492Z,43.24
2022-09-17T13:47:54.073Z,43.25
2022-09-17T13:50:35.440Z,43.33
2022-09-17T13:53:16.870Z,42.73
2022-09-17T13:55:48.111Z,41.96
2022-09-17T13:58:23.503Z,42.52
2022-09-17T14:01:13.395Z,42.29
2022-09-17T14:03:45.527Z,42.51
2022-09-17T14:06:11.879Z,42.37
2022-09-17T14:08:44.193Z,42.45
2022-09-17T14:11:37.427Z,42.74
2022-09-17T14:14:07.814Z,42.56
2022-09-17T14:16:43.015Z,42.79
2022-09-17T14:19:15.391Z,43.01
2022-09-17T14:22:00.387Z,43.17
2022-09-17T14:24:37.530Z,43.17
2022-09-17T14:27:42.551Z,42.98
2022-09-17T14:30:24.074Z,42.73
2022-09-17T14:32:56.101Z,42.62
2022-09-17T14:35:42.141Z,42.79
2022-09-17T14:38:33.574Z,42.73
2022-09-17T14:43:43.754Z,42.12
2022-09-17T14:46:17.825Z,43.26
2022-09-17T14:48:44.197Z,42.97
2022-09-17T14:51:19.713Z,43.56
2022-09-17T14:54:06.915Z,43.18
2022-09-17T14:56:36.381Z,43.14
2022-09-17T14:59:02.688Z,43.39
2022-09-17T15:01:30.863Z,43.23
2022-09-17T15:04:12.488Z,43.66
2022-09-17T15:06:41.821Z,43.40
2022-09-17T15:09:25.912Z,44.33
2022-09-17T15:11:55.197Z,44.36
2022-09-17T15:14:26.892Z,44.53
2022-09-17T15:16:55.188Z,44.71
2022-09-17T15:19:35.799Z,44.87
2022-09-17T15:22:08.620Z,44.82
2022-09-17T15:24:53.963Z,44.67
2022-09-17T15:27:30.644Z,43.53
2022-09-17T15:30:09.556Z,43.99
2022-09-17T15:32:36.238Z,43.89
2022-09-17T15:35:11.933Z,44.22
2022-09-17T15:37:46.659Z,44.37
2022-09-17T15:40:28.281Z,44.46
2022-09-17T15:43:14.311Z,44.58
2022-09-17T15:45:42.441Z,44.50
2022-09-17T15:48:32.778Z,44.38
2022-09-17T15:51:01.102Z,44.53
2022-09-17T15:53:30.098Z,44.54
2022-09-17T15:56:09.450Z,44.59
2022-09-17T15:58:41.510Z,44.65
2022-09-17T16:01:13.815Z,44.52
2022-09-17T16:03:40.247Z,44.40
2022-09-17T16:06:18.613Z,44.74
2022-09-17T16:08:58.300Z,44.51
2022-09-17T16:11:34.853Z,44.42
2022-09-17T16:14:01.529Z,44.43
2022-09-17T16:16:33.881Z,44.61
2022-09-17T16:19:00.710Z,44.90
2022-09-17T16:21:27.649Z,44.78
2022-09-17T16:23:54.017Z,44.57
2022-09-17T16:26:22.568Z,44.59
2022-09-17T16:28:49.907Z,44.72
2022-09-17T16:31:16.313Z,44.54
2022-09-17T16:33:42.652Z,44.19
2022-09-17T16:36:09.280Z,43.96
2022-09-17T16:38:36.211Z,43.81
2022-09-17T16:41:05.517Z,43.63
2022-09-17T16:43:33.539Z,43.71
2022-09-17T16:46:05.211Z,43.34
2022-09-17T16:48:33.004Z,43.21
2022-09-17T16:51:01.319Z,43.06
2022-09-17T16:53:27.684Z,43.14
2022-09-17T16:55:53.989Z,43.02
2022-09-17T16:58:20.295Z,43.15
2022-09-17T17:00:46.648Z,43.30
2022-09-17T17:03:14.315Z,43.22
2022-09-17T17:05:41.158Z,43.27
2022-09-17T17:08:09.007Z,43.37
2022-09-17T17:10:37.806Z,43.38
2022-09-17T17:13:04.846Z,43.48
2022-09-17T17:15:31.237Z,43.56
2022-09-17T17:17:57.854Z,43.54
2022-09-17T17:20:24.137Z,43.79
2022-09-17T17:22:52.804Z,43.69
2022-09-17T17:25:19.032Z,43.69
2022-09-17T17:27:45.379Z,43.59
2022-09-17T17:30:16.667Z,43.71
2022-09-17T17:32:43.804Z,43.58
2022-09-17T17:35:10.634Z,43.56
2022-09-17T17:37:36.956Z,43.56
2022-09-17T17:40:06.812Z,43.55
2022-09-17T17:42:37.932Z,43.53
2022-09-17T17:45:06.032Z,43.66
2022-09-17T17:47:32.352Z,43.40
2022-09-17T17:49:58.740Z,43.22
2022-09-17T17:52:25.246Z,43.19
2022-09-17T17:54:51.539Z,43.33
2022-09-17T17:57:17.824Z,43.19
2022-09-17T17:59:44.124Z,43.35
2022-09-17T18:02:11.481Z,43.47
2022-09-17T18:04:37.881Z,43.24
2022-09-17T18:07:04.216Z,43.46
2022-09-17T18:09:30.519Z,43.37
2022-09-17T18:11:56.832Z,43.56
2022-09-17T18:14:23.123Z,43.53
2022-09-17T18:16:49.480Z,43.91
2022-09-17T18:19:15.764Z,43.87
2022-09-17T18:21:42.088Z,44.37
2022-09-17T18:24:08.394Z,44.18
2022-09-17T18:26:35.717Z,44.23
2022-09-17T18:29:07.049Z,44.23
2022-09-17T18:31:35.808Z,44.57
2022-09-17T18:34:04.907Z,44.32
2022-09-17T18:36:33.900Z,44.84
2022-09-17T18:39:16.980Z,44.57
2022-09-17T18:41:48.932Z,44.34
2022-09-17T18:44:15.688Z,44.37
2022-09-17T18:46:42.574Z,44.66
2022-09-17T18:49:09.059Z,44.81
2022-09-17T18:51:35.378Z,44.54
2022-09-17T18:54:03.029Z,44.74
2022-09-17T18:56:32.590Z,45.18
2022-09-17T18:59:02.391Z,44.71
2022-09-17T19:01:32.321Z,44.85
2022-09-17T19:03:59.416Z,45.17
2022-09-17T19:06:27.166Z,44.95
2022-09-17T19:08:55.417Z,45.30
2022-09-17T19:11:21.730Z,45.00
2022-09-17T19:13:51.477Z,45.51
2022-09-17T19:16:18.048Z,45.24
2022-09-17T19:18:44.754Z,45.08
2022-09-17T19:21:19.375Z,45.58
2022-09-17T19:23:49.087Z,45.42
2022-09-17T19:26:21.692Z,45.24
2022-09-17T19:28:51.148Z,45.50
2022-09-17T19:31:17.717Z,45.64
2022-09-17T19:33:45.198Z,45.53
2022-09-17T19:36:16.233Z,45.96
2022-09-17T19:38:43.402Z,45.66
2022-09-17T19:41:12.225Z,46.04
2022-09-17T19:43:39.537Z,45.68
2022-09-17T19:46:08.453Z,45.50
2022-09-17T19:48:38.006Z,46.12
2022-09-17T19:51:05.348Z,46.07
2022-09-17T19:53:32.532Z,46.31
2022-09-17T19:55:58.853Z,45.93
2022-09-17T19:58:25.154Z,46.33
2022-09-17T20:00:58.999Z,46.69
2022-09-17T20:03:25.963Z,46.15
2022-09-17T20:06:03.875Z,46.85
2022-09-17T20:08:30.913Z,46.13
2022-09-17T20:11:05.237Z,46.63
2022-09-17T20:13:31.769Z,46.18
2022-09-17T20:16:04.052Z,46.45
2022-09-17T20:18:30.477Z,45.99
2022-09-17T20:20:56.833Z,46.27
2022-09-17T20:23:23.116Z,46.18
2022-09-17T20:25:53.338Z,46.77
2022-09-17T20:28:20.036Z,46.79
2022-09-17T20:30:46.368Z,46.55
2022-09-17T20:33:13.201Z,46.32
2022-09-17T20:35:39.491Z,46.35
2022-09-17T20:38:57.825Z,46.35
2022-09-17T20:40:52.387Z,46.47
2022-09-17T20:43:18.690Z,46.87
2022-09-17T20:45:52.688Z,46.78
2022-09-17T20:48:18.973Z,46.61
2022-09-17T20:50:54.678Z,46.66
2022-09-17T20:53:20.968Z,46.27
2022-09-17T20:56:02.372Z,46.24
2022-09-17T20:58:30.644Z,46.07
2022-09-17T21:01:09.312Z,46.22
2022-09-17T21:03:35.836Z,46.36
2022-09-17T21:06:02.192Z,46.21
2022-09-17T21:08:28.828Z,46.07
2022-09-17T21:10:55.255Z,46.23
2022-09-17T21:13:21.565Z,46.25
2022-09-17T21:15:58.972Z,46.67
2022-09-17T21:18:25.798Z,46.29
2022-09-17T21:20:52.109Z,46.37
2022-09-17T21:23:29.243Z,46.31
2022-09-17T21:26:12.935Z,46.20
2022-09-17T21:28:40.144Z,46.29
2022-09-17T21:31:10.697Z,45.68
2022-09-17T21:33:37.392Z,45.99
2022-09-17T21:36:06.257Z,46.32
2022-09-17T21:38:32.988Z,45.92
2022-09-17T21:41:01.344Z,45.99
2022-09-17T21:43:28.169Z,45.93
2022-09-17T21:45:59.601Z,46.45
2022-09-17T21:48:26.284Z,46.27
2022-09-17T21:50:53.149Z,46.52
2022-09-17T21:53:19.681Z,46.11
2022-09-17T21:55:45.965Z,46.35
2022-09-17T21:58:12.253Z,46.72
2022-09-17T22:00:38.581Z,46.38
2022-09-17T22:03:04.987Z,46.47
2022-09-17T22:05:32.589Z,46.80
2022-09-17T22:07:58.891Z,46.44
2022-09-17T22:10:25.242Z,46.75
2022-09-17T22:12:51.537Z,46.85
2022-09-17T22:15:17.824Z,46.92
2022-09-17T22:17:44.124Z,46.68
2022-09-17T22:20:10.434Z,46.72
2022-09-17T22:22:36.748Z,47.13
2022-09-17T22:25:03.228Z,46.74
2022-09-17T22:27:29.525Z,47.39
2022-09-17T22:29:55.805Z,46.95
2022-09-17T22:32:22.586Z,47.24
2022-09-17T22:34:49.587Z,47.24
2022-09-17T22:37:16.473Z,47.24
2022-09-17T22:39:42.752Z,47.05
2022-09-17T22:42:09.025Z,47.46
2022-09-17T22:44:35.358Z,47.34
2022-09-17T22:47:01.735Z,47.51
2022-09-17T22:49:28.087Z,47.10
2022-09-17T22:51:54.398Z,47.83
2022-09-17T22:54:20.687Z,47.46
2022-09-17T22:56:48.283Z,47.36
2022-09-17T22:59:14.867Z,47.82
2022-09-17T23:01:41.677Z,47.78
2022-09-17T23:04:08.859Z,47.98
2022-09-17T23:06:38.094Z,47.71
2022-09-17T23:09:05.438Z,47.74
2022-09-17T23:11:34.621Z,47.79
2022-09-17T23:14:03.452Z,47.98
2022-09-17T23:16:35.072Z,48.43
2022-09-17T23:19:01.367Z,47.73
2022-09-17T23:21:27.649Z,47.68
2022-09-17T23:23:53.980Z,48.45
2022-09-17T23:26:23.056Z,48.40
2022-09-17T23:28:49.952Z,48.19
2022-09-17T23:31:21.291Z,48.79
2022-09-17T23:33:48.345Z,48.60
2022-09-17T23:36:17.372Z,48.58
2022-09-17T23:38:44.663Z,48.53
2022-09-17T23:41:19.780Z,49.20
2022-09-17T23:43:48.929Z,48.92
2022-09-17T23:46:15.778Z,48.77
2022-09-17T23:48:42.436Z,48.57
2022-09-17T23:51:09.329Z,49.05
2022-09-17T23:53:36.521Z,49.11
2022-09-17T23:56:04.551Z,49.21
2022-09-17T23:58:32.643Z,49.22
